Time;durP1;ratioP1;P1;durP2;ratioP2;P2;SDS_P1;SDS_P2;PMS_P1;PMS_P2;Temp;Humidity;BMP_temperature;BMP_pressure;BME280_temperature;BME280_humidity;BME280_pressure;Samples;Min_cycle;Max_cycle;Signal;HPM_P1;HPM_P2
2022/01/14 00:02:20;;;;;;;41.70;14.17;;;;;;;;;;5042681;28;20091;-79
2022/01/14 00:04:46;;;;;;;40.33;13.77;;;;;;;;;;5030580;28;20334;-79
2022/01/14 00:07:12;;;;;;;46.40;14.17;;;;;;;;;;5042867;28;20291;-78
2022/01/14 00:09:39;;;;;;;40.80;11.90;;;;;;;;;;5038332;28;20652;-78
2022/01/14 00:12:11;;;;;;;31.43;11.77;;;;;;;;;;5041995;28;20288;-78
2022/01/14 00:14:40;;;;;;;45.80;14.45;;;;;;;;;;5031937;28;20287;-79
2022/01/14 00:17:10;;;;;;;44.30;13.10;;;;;;;;;;5042836;28;20033;-79
2022/01/14 00:19:37;;;;;;;40.33;13.27;;;;;;;;;;5041486;28;20279;-79
2022/01/14 00:22:10;;;;;;;37.17;11.70;;;;;;;;;;5045423;28;20367;-80
2022/01/14 00:33:00;;;;;;;38.70;12.63;;;;;;;;;;5035233;28;20279;-80
2022/01/14 00:35:26;;;;;;;44.00;13.47;;;;;;;;;;5032635;28;20340;-79
2022/01/14 00:37:52;;;;;;;31.80;11.53;;;;;;;;;;5024706;28;20284;-79
2022/01/14 00:40:18;;;;;;;53.70;12.97;;;;;;;;;;5045674;28;20280;-79
2022/01/14 00:42:45;;;;;;;37.27;12.43;;;;;;;;;;5040170;28;20307;-79
2022/01/14 00:45:11;;;;;;;38.83;13.70;;;;;;;;;;5038948;28;20306;-80
2022/01/14 00:47:39;;;;;;;41.00;14.60;;;;;;;;;;5039855;28;20289;-80
2022/01/14 00:50:09;;;;;;;40.90;13.57;;;;;;;;;;5035598;28;20273;-80
2022/01/14 00:52:36;;;;;;;41.33;13.20;;;;;;;;;;5040121;28;20314;-80
2022/01/14 00:55:05;;;;;;;39.40;13.17;;;;;;;;;;5043916;28;20276;-79
2022/01/14 01:00:17;;;;;;;36.77;13.10;;;;;;;;;;5033670;28;20352;-79
2022/01/14 01:02:43;;;;;;;36.63;11.27;;;;;;;;;;5041612;28;20275;-79
2022/01/14 01:05:09;;;;;;;32.40;12.10;;;;;;;;;;5040143;28;20298;-79
2022/01/14 01:07:37;;;;;;;35.93;12.57;;;;;;;;;;5042664;28;20608;-79
2022/01/14 01:10:04;;;;;;;34.20;11.37;;;;;;;;;;5043177;28;20272;-79
2022/01/14 01:12:53;;;;;;;39.60;13.03;;;;;;;;;;5028642;28;20267;-79
2022/01/14 01:15:20;;;;;;;34.03;12.37;;;;;;;;;;5026994;28;20281;-80
2022/01/14 01:17:47;;;;;;;38.87;14.17;;;;;;;;;;5063432;28;20276;-78
2022/01/14 01:20:18;;;;;;;35.43;13.47;;;;;;;;;;5040084;28;20269;-79
2022/01/14 01:22:45;;;;;;;40.33;13.33;;;;;;;;;;5040614;28;20288;-79
2022/01/14 01:25:13;;;;;;;37.43;11.67;;;;;;;;;;5043502;28;20287;-79
2022/01/14 01:27:42;;;;;;;49.27;13.23;;;;;;;;;;5037480;28;20375;-79
2022/01/14 01:30:27;;;;;;;43.57;12.53;;;;;;;;;;5054919;28;20276;-78
2022/01/14 01:32:53;;;;;;;45.23;13.00;;;;;;;;;;5043297;28;20306;-78
2022/01/14 01:35:18;;;;;;;47.17;13.30;;;;;;;;;;5035925;28;20338;-79
2022/01/14 01:37:45;;;;;;;37.80;12.30;;;;;;;;;;5039635;28;20280;-79
2022/01/14 01:40:11;;;;;;;37.73;13.60;;;;;;;;;;5025328;28;20041;-79
2022/01/14 01:42:39;;;;;;;39.37;11.60;;;;;;;;;;5042206;28;20276;-80
2022/01/14 01:45:09;;;;;;;35.97;13.40;;;;;;;;;;5044513;28;20280;-78
2022/01/14 01:47:37;;;;;;;32.70;11.87;;;;;;;;;;5043565;28;20323;-79
2022/01/14 01:50:10;;;;;;;34.10;12.27;;;;;;;;;;5042251;28;20291;-78
2022/01/14 01:52:36;;;;;;;33.07;11.80;;;;;;;;;;5038434;28;20269;-80
2022/01/14 01:55:03;;;;;;;30.23;10.67;;;;;;;;;;5040700;28;20292;-78
2022/01/14 01:57:29;;;;;;;31.37;11.13;;;;;;;;;;5042599;28;20280;-78
2022/01/14 01:59:55;;;;;;;33.30;11.37;;;;;;;;;;5043174;28;20280;-80
2022/01/14 02:02:21;;;;;;;30.57;11.57;;;;;;;;;;5043786;28;20372;-80
2022/01/14 02:04:47;;;;;;;27.27;9.93;;;;;;;;;;5037190;28;20029;-79
2022/01/14 02:07:14;;;;;;;38.77;12.37;;;;;;;;;;5038030;28;20285;-79
2022/01/14 02:09:40;;;;;;;30.67;11.07;;;;;;;;;;5045202;28;20379;-79
2022/01/14 02:12:09;;;;;;;33.63;10.90;;;;;;;;;;5045601;28;20311;-79
2022/01/14 02:17:28;;;;;;;26.23;10.67;;;;;;;;;;5033790;28;20286;-78
2022/01/14 02:22:10;;;;;;;31.70;10.55;;;;;;;;;;5042904;28;20283;-77
2022/01/14 02:22:49;;;;;;;26.37;12.20;;;;;;;;;;5030704;28;21278;-78
2022/01/14 02:25:16;;;;;;;26.47;9.53;;;;;;;;;;5042997;28;20276;-79
2022/01/14 02:27:43;;;;;;;22.23;9.70;;;;;;;;;;5043711;28;20284;-79
2022/01/14 02:30:09;;;;;;;31.50;9.70;;;;;;;;;;5046148;28;20269;-79
2022/01/14 02:32:36;;;;;;;31.70;12.13;;;;;;;;;;5042614;28;21165;-80
2022/01/14 02:35:02;;;;;;;38.10;10.17;;;;;;;;;;5043496;28;20832;-79
2022/01/14 02:37:27;;;;;;;30.60;10.27;;;;;;;;;;5040333;28;20376;-79
2022/01/14 02:39:54;;;;;;;29.10;10.13;;;;;;;;;;5045201;28;20285;-80
2022/01/14 02:42:19;;;;;;;30.53;9.73;;;;;;;;;;5044946;28;20029;-79
2022/01/14 02:44:48;;;;;;;28.50;10.67;;;;;;;;;;5042486;28;20337;-79
2022/01/14 02:47:17;;;;;;;34.97;9.97;;;;;;;;;;5041333;28;20436;-79
2022/01/14 02:49:43;;;;;;;27.03;10.13;;;;;;;;;;5033540;28;20307;-79
2022/01/14 02:52:09;;;;;;;29.37;11.07;;;;;;;;;;5044791;28;20287;-79
2022/01/14 02:54:41;;;;;;;35.83;10.30;;;;;;;;;;5043501;28;20278;-79
2022/01/14 02:57:09;;;;;;;31.35;11.60;;;;;;;;;;5037963;28;20295;-79
2022/01/14 02:59:37;;;;;;;30.10;10.57;;;;;;;;;;5046762;28;20055;-78
2022/01/14 03:02:03;;;;;;;28.87;9.90;;;;;;;;;;5044404;28;20276;-79
2022/01/14 03:04:36;;;;;;;28.13;10.37;;;;;;;;;;5042879;28;20280;-79
2022/01/14 03:07:02;;;;;;;19.02;10.27;;;;;;;;;;5030547;28;20306;-78
2022/01/14 03:09:30;;;;;;;32.37;9.97;;;;;;;;;;5046408;28;20057;-79
2022/01/14 03:11:59;;;;;;;28.37;11.20;;;;;;;;;;5033500;28;20350;-79
2022/01/14 03:14:25;;;;;;;38.37;14.00;;;;;;;;;;5044956;28;20302;-79
2022/01/14 03:16:53;;;;;;;23.03;9.37;;;;;;;;;;5043321;28;21941;-78
2022/01/14 03:19:23;;;;;;;27.43;10.40;;;;;;;;;;5047339;28;20103;-79
2022/01/14 03:21:52;;;;;;;36.67;11.77;;;;;;;;;;5032074;28;20315;-79
2022/01/14 03:26:47;;;;;;;29.53;10.90;;;;;;;;;;5026992;28;20800;-79
2022/01/14 03:29:14;;;;;;;24.97;10.83;;;;;;;;;;5040729;28;20613;-79
2022/01/14 03:31:40;;;;;;;29.23;9.87;;;;;;;;;;5039865;28;20287;-79
2022/01/14 03:34:06;;;;;;;29.20;10.57;;;;;;;;;;5040714;28;20360;-78
2022/01/14 03:36:32;;;;;;;29.20;10.23;;;;;;;;;;5043143;28;20017;-79
2022/01/14 03:38:58;;;;;;;30.80;10.70;;;;;;;;;;5043717;28;20280;-79
2022/01/14 03:41:24;;;;;;;30.17;10.17;;;;;;;;;;5034866;28;20322;-79
2022/01/14 03:43:51;;;;;;;26.27;10.03;;;;;;;;;;5042642;28;20276;-79
2022/01/14 03:46:16;;;;;;;27.33;9.60;;;;;;;;;;5038233;28;20272;-79
2022/01/14 03:48:43;;;;;;;25.20;9.67;;;;;;;;;;5043546;28;20295;-78
2022/01/14 03:51:09;;;;;;;26.07;9.33;;;;;;;;;;5041982;28;20107;-80
2022/01/14 03:53:35;;;;;;;28.47;10.13;;;;;;;;;;5040443;28;20273;-79
2022/01/14 03:56:01;;;;;;;30.73;11.20;;;;;;;;;;5062512;28;20342;-79
2022/01/14 03:58:27;;;;;;;30.73;11.27;;;;;;;;;;5045456;28;20280;-79
2022/01/14 04:00:53;;;;;;;25.23;10.30;;;;;;;;;;5039670;28;20022;-80
2022/01/14 04:03:19;;;;;;;28.90;11.93;;;;;;;;;;5043274;28;20307;-78
2022/01/14 04:05:45;;;;;;;26.03;11.17;;;;;;;;;;5028849;28;20037;-79
2022/01/14 04:08:15;;;;;;;26.80;9.47;;;;;;;;;;5063941;28;20565;-79
2022/01/14 04:10:42;;;;;;;23.03;9.70;;;;;;;;;;5040398;28;20095;-79
2022/01/14 04:13:18;;;;;;;29.07;10.33;;;;;;;;;;5027927;28;20272;-80
2022/01/14 04:15:46;;;;;;;30.83;10.23;;;;;;;;;;5040248;28;20280;-78
2022/01/14 04:18:15;;;;;;;25.73;9.80;;;;;;;;;;5040779;28;20422;-79
2022/01/14 04:20:41;;;;;;;41.47;11.53;;;;;;;;;;5040585;28;20272;-79
2022/01/14 04:23:08;;;;;;;28.30;9.43;;;;;;;;;;5040565;28;20759;-79
2022/01/14 04:25:35;;;;;;;33.47;11.43;;;;;;;;;;5044679;28;20282;-79
2022/01/14 04:28:02;;;;;;;29.93;10.03;;;;;;;;;;5038150;28;22143;-79
2022/01/14 04:30:28;;;;;;;26.43;10.07;;;;;;;;;;5039221;28;20272;-78
2022/01/14 04:32:54;;;;;;;27.33;9.67;;;;;;;;;;5033759;28;20284;-78
2022/01/14 04:35:21;;;;;;;30.93;11.43;;;;;;;;;;5042603;28;20298;-78
2022/01/14 04:37:47;;;;;;;28.23;10.90;;;;;;;;;;5039236;28;20315;-78
2022/01/14 04:40:13;;;;;;;39.67;10.67;;;;;;;;;;5041726;28;20320;-79
2022/01/14 04:42:43;;;;;;;26.30;10.23;;;;;;;;;;5042628;28;20276;-78
2022/01/14 04:45:10;;;;;;;30.07;11.63;;;;;;;;;;5043286;28;20291;-80
2022/01/14 04:47:45;;;;;;;26.30;8.97;;;;;;;;;;5040758;28;20288;-79
2022/01/14 04:50:15;;;;;;;34.43;10.00;;;;;;;;;;5038437;28;20367;-80
2022/01/14 04:52:43;;;;;;;35.83;10.53;;;;;;;;;;5043221;28;20291;-80
2022/01/14 04:55:09;;;;;;;30.97;9.53;;;;;;;;;;5040265;28;20295;-79
2022/01/14 04:57:35;;;;;;;26.50;10.63;;;;;;;;;;5029312;28;20279;-79
2022/01/14 05:00:03;;;;;;;26.50;8.37;;;;;;;;;;5041068;28;20421;-79
2022/01/14 05:02:32;;;;;;;19.70;8.83;;;;;;;;;;5039923;28;20284;-79
2022/01/14 05:04:59;;;;;;;20.07;8.33;;;;;;;;;;5037324;28;20283;-79
2022/01/14 05:07:26;;;;;;;25.37;8.43;;;;;;;;;;5040766;28;20292;-79
2022/01/14 05:12:24;;;;;;;26.98;9.65;;;;;;;;;;5025288;28;20299;-79
2022/01/14 05:14:50;;;;;;;31.77;10.40;;;;;;;;;;5030423;28;20105;-79
2022/01/14 05:17:16;;;;;;;21.37;9.17;;;;;;;;;;5040108;28;20959;-79
2022/01/14 05:19:42;;;;;;;30.00;8.93;;;;;;;;;;5037888;28;20072;-79
2022/01/14 05:22:08;;;;;;;24.90;8.57;;;;;;;;;;5031656;28;20121;-79
2022/01/14 05:24:34;;;;;;;25.90;9.13;;;;;;;;;;5041771;28;20030;-80
2022/01/14 05:27:00;;;;;;;30.67;9.87;;;;;;;;;;5040766;28;20318;-79
2022/01/14 05:29:26;;;;;;;26.50;8.37;;;;;;;;;;5037086;28;20108;-80
2022/01/14 05:32:01;;;;;;;26.73;8.73;;;;;;;;;;5040309;28;20029;-79
2022/01/14 05:34:27;;;;;;;21.03;7.77;;;;;;;;;;5039344;28;20017;-80
2022/01/14 05:36:53;;;;;;;24.43;9.07;;;;;;;;;;5036690;28;20313;-79
2022/01/14 05:39:20;;;;;;;21.07;8.70;;;;;;;;;;5061490;28;20269;-79
2022/01/14 05:41:46;;;;;;;23.33;8.53;;;;;;;;;;5040904;28;20771;-80
2022/01/14 05:44:12;;;;;;;21.37;9.23;;;;;;;;;;5038474;28;20314;-79
2022/01/14 05:46:38;;;;;;;22.03;9.60;;;;;;;;;;5030054;28;20275;-78
2022/01/14 05:49:05;;;;;;;22.87;8.67;;;;;;;;;;5037068;28;20277;-79
2022/01/14 05:51:31;;;;;;;22.67;8.97;;;;;;;;;;5039625;28;20620;-78
2022/01/14 05:53:57;;;;;;;17.47;8.67;;;;;;;;;;5027460;28;20333;-79
2022/01/14 05:56:23;;;;;;;24.40;9.93;;;;;;;;;;5037595;28;20278;-80
2022/01/14 05:58:49;;;;;;;27.03;9.87;;;;;;;;;;5037402;28;20289;-79
2022/01/14 06:01:15;;;;;;;22.57;8.87;;;;;;;;;;5042319;28;20800;-80
2022/01/14 06:03:41;;;;;;;27.80;9.87;;;;;;;;;;5035872;28;20283;-79
2022/01/14 06:06:06;;;;;;;18.53;9.53;;;;;;;;;;5038078;28;20338;-81
2022/01/14 06:08:32;;;;;;;22.63;8.53;;;;;;;;;;5028809;28;20284;-80
2022/01/14 06:10:59;;;;;;;21.00;9.57;;;;;;;;;;5035693;28;20040;-79
2022/01/14 06:13:25;;;;;;;23.60;8.30;;;;;;;;;;5039863;28;20029;-79
2022/01/14 06:15:51;;;;;;;18.33;8.47;;;;;;;;;;5045533;28;20288;-79
2022/01/14 06:18:17;;;;;;;22.07;7.97;;;;;;;;;;5045064;28;20037;-79
2022/01/14 06:20:43;;;;;;;18.70;8.10;;;;;;;;;;5040599;28;20276;-79
2022/01/14 06:23:09;;;;;;;25.50;10.77;;;;;;;;;;5042741;28;20311;-79
2022/01/14 06:25:35;;;;;;;26.77;9.13;;;;;;;;;;5039918;28;20036;-79
2022/01/14 06:28:01;;;;;;;28.57;9.77;;;;;;;;;;5041176;28;20320;-79
2022/01/14 06:30:27;;;;;;;26.20;8.93;;;;;;;;;;5040462;28;20284;-79
2022/01/14 06:32:54;;;;;;;19.07;8.40;;;;;;;;;;5034190;28;20279;-78
2022/01/14 06:35:20;;;;;;;25.73;9.33;;;;;;;;;;5040212;28;20330;-79
2022/01/14 06:37:46;;;;;;;26.93;9.67;;;;;;;;;;5037861;28;20684;-79
2022/01/14 06:40:12;;;;;;;20.67;8.67;;;;;;;;;;5038202;28;20288;-79
2022/01/14 06:42:38;;;;;;;23.67;8.93;;;;;;;;;;5035441;28;20280;-78
2022/01/14 06:45:05;;;;;;;24.07;8.03;;;;;;;;;;5038913;28;20291;-78
2022/01/14 06:47:32;;;;;;;21.70;9.70;;;;;;;;;;5040318;28;20664;-79
2022/01/14 06:49:58;;;;;;;22.33;9.30;;;;;;;;;;5047037;28;20267;-79
2022/01/14 06:52:24;;;;;;;26.17;8.90;;;;;;;;;;5039697;28;20342;-79
2022/01/14 06:54:50;;;;;;;25.57;7.70;;;;;;;;;;5033938;28;20264;-79
2022/01/14 06:57:17;;;;;;;29.20;8.70;;;;;;;;;;5041626;28;20375;-79
2022/01/14 06:59:43;;;;;;;22.43;7.70;;;;;;;;;;5041245;28;20029;-80
2022/01/14 07:02:10;;;;;;;23.47;9.50;;;;;;;;;;5042521;28;20332;-79
2022/01/14 07:04:36;;;;;;;19.97;8.27;;;;;;;;;;5041833;28;20346;-78
2022/01/14 07:07:03;;;;;;;29.13;12.27;;;;;;;;;;5040548;28;20285;-79
2022/01/14 07:09:31;;;;;;;35.30;11.17;;;;;;;;;;5043149;28;20363;-79
2022/01/14 07:11:59;;;;;;;23.93;8.73;;;;;;;;;;5034521;28;20358;-78
2022/01/14 07:14:29;;;;;;;27.73;9.80;;;;;;;;;;5039624;28;20360;-79
2022/01/14 07:16:55;;;;;;;25.80;9.37;;;;;;;;;;5042067;28;20280;-80
2022/01/14 07:19:22;;;;;;;18.03;7.80;;;;;;;;;;5041612;28;20312;-79
2022/01/14 07:21:48;;;;;;;26.37;9.07;;;;;;;;;;5041990;28;20028;-80
2022/01/14 07:24:14;;;;;;;36.20;11.20;;;;;;;;;;5029733;28;20288;-79
2022/01/14 07:26:41;;;;;;;29.27;9.50;;;;;;;;;;5040438;28;20296;-79
2022/01/14 07:29:07;;;;;;;25.87;8.70;;;;;;;;;;5032422;28;20364;-79
2022/01/14 07:31:33;;;;;;;26.73;9.93;;;;;;;;;;5036828;28;20587;-78
2022/01/14 07:34:00;;;;;;;20.57;8.37;;;;;;;;;;5041299;28;20289;-79
2022/01/14 07:36:25;;;;;;;28.00;9.40;;;;;;;;;;5058786;28;20803;-78
2022/01/14 07:38:54;;;;;;;25.37;8.73;;;;;;;;;;5062044;28;20362;-78
2022/01/14 07:41:20;;;;;;;23.27;9.97;;;;;;;;;;5038727;28;20030;-78
2022/01/14 07:43:48;;;;;;;34.27;10.00;;;;;;;;;;5040962;28;20295;-79
2022/01/14 07:46:15;;;;;;;28.43;9.17;;;;;;;;;;5038428;28;20280;-80
2022/01/14 07:48:41;;;;;;;23.87;9.20;;;;;;;;;;5042400;28;20322;-78
2022/01/14 07:51:09;;;;;;;36.13;10.57;;;;;;;;;;5032192;28;20662;-79
2022/01/14 07:53:35;;;;;;;24.47;9.67;;;;;;;;;;5038579;28;20268;-79
2022/01/14 07:56:01;;;;;;;19.53;8.63;;;;;;;;;;5039772;28;20308;-78
2022/01/14 07:58:27;;;;;;;24.13;10.67;;;;;;;;;;5028402;28;20280;-79
2022/01/14 08:00:53;;;;;;;20.77;8.70;;;;;;;;;;5044564;28;20292;-79
2022/01/14 08:03:19;;;;;;;25.50;10.37;;;;;;;;;;5035294;28;20600;-79
2022/01/14 08:05:46;;;;;;;27.03;10.20;;;;;;;;;;5038200;28;20295;-79
2022/01/14 08:08:12;;;;;;;25.83;9.00;;;;;;;;;;5035851;28;20320;-80
2022/01/14 08:10:38;;;;;;;21.63;8.97;;;;;;;;;;5038613;28;20608;-79
2022/01/14 08:13:07;;;;;;;19.63;8.83;;;;;;;;;;5041930;28;20276;-80
2022/01/14 08:15:33;;;;;;;31.40;9.73;;;;;;;;;;5024600;28;20273;-78
2022/01/14 08:18:01;;;;;;;25.70;9.90;;;;;;;;;;5040015;28;20343;-78
2022/01/14 08:20:27;;;;;;;32.30;10.27;;;;;;;;;;5030469;28;20609;-79
2022/01/14 08:22:53;;;;;;;26.33;10.43;;;;;;;;;;5039296;28;20906;-79
2022/01/14 08:25:20;;;;;;;36.93;11.60;;;;;;;;;;5023237;28;20260;-79
2022/01/14 08:27:46;;;;;;;23.33;9.30;;;;;;;;;;5040488;28;20326;-79
2022/01/14 08:30:12;;;;;;;25.53;11.03;;;;;;;;;;5036557;28;20299;-78
2022/01/14 08:32:38;;;;;;;27.37;10.77;;;;;;;;;;5039186;28;20060;-79
2022/01/14 08:35:04;;;;;;;28.07;10.83;;;;;;;;;;5028703;28;20280;-79
2022/01/14 08:37:30;;;;;;;29.40;10.33;;;;;;;;;;5036242;28;20686;-79
2022/01/14 08:39:58;;;;;;;25.77;10.93;;;;;;;;;;5038879;28;20277;-79
2022/01/14 08:42:27;;;;;;;25.37;9.90;;;;;;;;;;5056779;28;20336;-78
2022/01/14 08:44:53;;;;;;;28.77;10.23;;;;;;;;;;5040311;28;20300;-78
2022/01/14 08:47:19;;;;;;;26.83;11.20;;;7.10;99.90;;;;;;5036782;28;20284;-78
2022/01/14 08:49:45;;;;;;;22.50;9.53;;;;;;;;;;5028821;28;20029;-80
2022/01/14 08:52:12;;;;;;;23.73;9.33;;;;;;;;;;5037766;28;20036;-80
2022/01/14 08:54:38;;;;;;;30.40;10.40;;;;;;;;;;5038012;28;20277;-80
2022/01/14 08:57:04;;;;;;;23.83;9.57;;;;;;;;;;5025017;28;20307;-78
2022/01/14 08:59:30;;;;;;;30.73;11.57;;;;;;;;;;5031798;28;20276;-80
2022/01/14 09:01:56;;;;;;;29.87;11.63;;;;;;;;;;5038540;28;20286;-79
2022/01/14 09:04:22;;;;;;;30.20;11.40;;;;;;;;;;5026081;28;20363;-79
2022/01/14 09:06:48;;;;;;;30.67;11.00;;;;;;;;;;5039522;28;20284;-79
2022/01/14 09:09:14;;;;;;;34.40;10.67;;;;;;;;;;5060004;28;20088;-79
2022/01/14 09:11:43;;;;;;;33.20;11.40;;;;;;;;;;5037958;28;20061;-79
2022/01/14 09:14:09;;;;;;;30.03;12.03;;;;;;;;;;5038263;28;21889;-78
2022/01/14 09:16:35;;;;;;;34.60;12.07;;;;;;;;;;5040095;28;20276;-80
2022/01/14 09:19:02;;;;;;;24.73;10.33;;;;;;;;;;5041501;28;20268;-80
2022/01/14 09:21:28;;;;;;;29.77;11.27;;;;;;;;;;5027298;28;20692;-79
2022/01/14 09:24:03;;;;;;;30.00;10.73;;;;;;;;;;5037695;28;20632;-80
2022/01/14 09:26:34;;;;;;;30.63;10.63;;;;;;;;;;5057684;28;20277;-78
2022/01/14 09:29:01;;;;;;;24.30;10.70;;;-0.10;99.90;;;;;;5042709;28;20291;-80
2022/01/14 09:31:28;;;;;;;29.57;10.00;;;0.80;99.90;;;;;;5057267;28;20567;-80
2022/01/14 09:33:53;;;;;;;34.87;10.00;;;0.80;99.90;;;;;;5027439;28;20299;-78
2022/01/14 09:36:19;;;;;;;23.57;10.00;;;0.90;99.90;;;;;;5027934;28;20056;-82
2022/01/14 09:38:45;;;;;;;26.97;10.03;;;0.80;99.90;;;;;;5034595;28;20030;-80
2022/01/14 09:41:13;;;;;;;32.67;11.07;;;0.90;99.90;;;;;;5023153;28;20066;-80
2022/01/14 09:43:39;;;;;;;33.43;12.10;;;1.00;99.90;;;;;;5025284;28;20028;-78
2022/01/14 09:46:08;;;;;;;28.30;10.57;;;1.00;99.90;;;;;;5039825;28;20342;-77
2022/01/14 09:48:35;;;;;;;24.60;10.67;;;1.10;99.90;;;;;;5065429;28;20025;-80
2022/01/14 09:51:01;;;;;;;24.73;10.13;;;1.20;99.90;;;;;;5035741;28;20276;-79
2022/01/14 09:53:29;;;;;;;26.37;10.17;;;1.20;99.90;;;;;;5031943;28;20269;-79
2022/01/14 09:55:58;;;;;;;32.93;11.43;;;1.30;99.90;;;;;;5030710;28;20607;-79
2022/01/14 09:58:27;;;;;;;23.23;9.53;;;1.40;99.90;;;;;;5031210;28;20298;-80
2022/01/14 10:01:11;;;;;;;29.10;11.43;;;1.40;99.90;;;;;;5034141;28;20284;-78
2022/01/14 10:03:53;;;;;;;35.87;12.37;;;1.50;99.90;;;;;;5031076;28;20279;-80
2022/01/14 10:06:41;;;;;;;30.93;12.07;;;1.60;99.90;;;;;;5041695;28;20304;-79
2022/01/14 10:09:38;;;;;;;39.63;15.13;;;1.60;99.90;;;;;;5043709;28;20284;-79
2022/01/14 10:12:17;;;;;;;35.50;12.33;;;1.60;99.90;;;;;;5058032;28;20285;-78
2022/01/14 10:15:00;;;;;;;28.30;10.93;;;1.70;99.90;;;;;;5035311;28;20593;-79
2022/01/14 10:17:37;;;;;;;29.00;11.23;;;1.80;99.90;;;;;;5025029;28;20288;-78
2022/01/14 10:20:04;;;;;;;29.20;11.60;;;1.90;99.90;;;;;;5039526;28;20280;-78
2022/01/14 10:22:32;;;;;;;24.30;10.23;;;2.10;99.90;;;;;;5028721;28;20819;-80
2022/01/14 10:25:12;;;;;;;27.00;11.03;;;2.30;99.90;;;;;;5032357;28;20272;-80
2022/01/14 10:27:42;;;;;;;31.27;11.83;;;2.40;99.90;;;;;;5038605;28;20431;-79
2022/01/14 10:30:32;;;;;;;26.97;10.60;;;2.50;99.90;;;;;;5034244;28;20286;-79
2022/01/14 10:33:04;;;;;;;22.40;9.73;;;2.70;99.90;;;;;;5033180;28;20315;-79
2022/01/14 10:35:34;;;;;;;32.10;13.40;;;2.80;99.90;;;;;;5030166;28;20309;-79
2022/01/14 10:38:05;;;;;;;31.90;12.90;;;2.90;99.90;;;;;;5047197;28;20275;-78
2022/01/14 10:40:38;;;;;;;32.40;14.20;;;3.00;99.90;;;;;;5060668;28;20276;-78
2022/01/14 10:43:09;;;;;;;32.00;14.67;;;3.00;99.90;;;;;;5024305;28;20280;-78
2022/01/14 10:45:36;;;;;;;27.13;13.03;;;3.10;99.90;;;;;;5037983;28;20283;-78
2022/01/14 10:48:09;;;;;;;31.30;13.70;;;3.20;99.90;;;;;;5031200;28;20291;-79
2022/01/14 10:50:35;;;;;;;;;;;3.20;99.90;;;;;;5032741;28;20421;-79
2022/01/14 10:53:07;;;;;;;49.00;17.23;;;3.40;99.90;;;;;;5066092;28;19948;-79
2022/01/14 10:55:36;;;;;;;38.40;17.30;;;3.40;99.90;;;;;;5045144;28;20123;-79
2022/01/14 10:58:03;;;;;;;25.57;13.73;;;3.30;99.90;;;;;;5039506;28;20044;-78
2022/01/14 11:00:40;;;;;;;38.33;14.47;;;3.30;99.90;;;;;;5044414;28;20288;-78
2022/01/14 11:03:34;;;;;;;36.70;13.77;;;3.30;99.90;;;;;;5033633;28;20286;-79
2022/01/14 11:07:00;;;;;;;41.53;14.97;;;3.20;99.90;;;;;;5047520;28;20344;-79
2022/01/14 11:09:46;;;;;;;37.70;14.57;;;3.20;99.90;;;;;;5005267;28;20289;-77
2022/01/14 11:12:11;;;;;;;33.73;15.47;;;3.30;99.90;;;;;;5021192;28;20268;-78
2022/01/14 11:17:21;;;;;;;37.43;15.40;;;3.40;99.90;;;;;;5019095;28;20040;-77
2022/01/14 11:19:47;;;;;;;42.97;15.93;;;3.30;99.90;;;;;;5002996;28;20657;-78
2022/01/14 11:25:19;;;;;;;41.97;16.37;;;3.50;99.90;;;;;;5019585;28;20283;-77
2022/01/14 11:35:13;;;;;;;48.88;18.60;;;3.20;99.90;;;;;;5011291;28;20275;-78
2022/01/14 11:38:19;;;;;;;42.78;16.52;;;3.10;99.90;;;;;;4964323;28;20092;-78
2022/01/14 11:41:00;;;;;;;60.53;17.97;;;3.10;99.90;;;;;;4929986;29;20062;-79
2022/01/14 11:44:07;;;;;;;66.80;18.53;;;3.10;99.90;;;;;;4962702;28;20373;-78
2022/01/14 11:46:36;;;;;;;58.57;18.43;;;3.00;99.90;;;;;;4927054;29;21009;-77
2022/01/14 11:49:25;;;;;;;56.23;19.03;;;3.10;99.90;;;;;;4956743;28;20291;-79
2022/01/14 11:52:01;;;;;;;61.77;18.60;;;3.20;99.90;;;;;;4941831;28;20369;-76
2022/01/14 11:54:47;;;;;;;66.97;20.17;;;3.20;99.90;;;;;;4946312;28;20283;-77
2022/01/14 11:57:39;;;;;;;64.43;18.27;;;3.30;99.90;;;;;;4942899;29;20279;-77
2022/01/14 12:00:24;;;;;;;84.47;21.93;;;3.30;99.90;;;;;;4963986;28;20325;-77
2022/01/14 12:02:51;;;;;;;94.50;23.80;;;3.10;99.90;;;;;;4960847;28;20282;-76
2022/01/14 12:05:21;;;;;;;93.60;24.23;;;3.10;99.90;;;;;;4945752;28;20616;-76
2022/01/14 12:08:02;;;;;;;79.27;22.70;;;3.00;99.90;;;;;;4952482;28;20307;-77
2022/01/14 12:10:33;;;;;;;109.07;24.37;;;3.00;99.90;;;;;;4966244;28;20271;-77
2022/01/14 12:13:23;;;;;;;81.47;23.13;;;2.90;99.90;;;;;;4942435;28;20279;-77
2022/01/14 12:15:59;;;;;;;107.40;22.90;;;2.90;99.90;;;;;;5060159;28;20280;-78
2022/01/14 12:19:00;;;;;;;96.40;23.27;;;2.90;99.90;;;;;;5060843;28;20285;-77
2022/01/14 12:21:39;;;;;;;89.83;23.03;;;3.00;99.90;;;;;;5038221;28;20283;-78
2022/01/14 12:24:19;;;;;;;104.00;24.23;;;3.10;99.90;;;;;;5038192;28;20877;-77
2022/01/14 12:26:57;;;;;;;93.00;23.20;;;3.20;99.90;;;;;;5035806;28;20280;-77
2022/01/14 12:30:01;;;;;;;99.43;22.73;;;3.30;99.90;;;;;;5039920;28;20311;-78
2022/01/14 12:32:29;;;;;;;90.53;23.10;;;3.40;99.90;;;;;;5022265;28;20306;-77
2022/01/14 12:34:55;;;;;;;74.53;21.40;;;3.30;99.90;;;;;;5035585;28;20778;-77
2022/01/14 12:37:46;;;;;;;87.10;21.47;;;3.30;99.90;;;;;;5062930;28;20057;-78
2022/01/14 12:40:13;;;;;;;76.33;20.93;;;3.10;99.90;;;;;;5038925;28;20030;-77
2022/01/14 12:42:44;;;;;;;92.70;23.13;;;3.20;99.90;;;;;;5024620;28;20273;-77
2022/01/14 12:45:12;;;;;;;84.43;19.03;;;3.30;99.90;;;;;;5057308;28;20280;-77
2022/01/14 12:47:41;;;;;;;75.13;20.40;;;3.50;99.90;;;;;;5024214;28;20335;-76
2022/01/14 12:50:10;;;;;;;71.13;19.67;;;3.40;99.90;;;;;;5031887;28;20337;-76
2022/01/14 12:52:53;;;;;;;86.93;21.80;;;3.40;99.90;;;;;;5028217;28;20276;-76
2022/01/14 12:55:19;;;;;;;86.37;21.30;;;3.40;99.90;;;;;;5026742;28;20276;-75
2022/01/14 12:57:45;;;;;;;77.80;23.17;;;3.50;99.90;;;;;;5054783;28;20279;-79
2022/01/14 13:00:13;;;;;;;87.20;18.80;;;3.40;99.90;;;;;;5033764;28;20410;-78
2022/01/14 13:02:40;;;;;;;86.67;20.50;;;3.30;99.90;;;;;;5027675;28;20034;-78
2022/01/14 13:05:15;;;;;;;60.90;19.27;;;3.40;99.90;;;;;;5046326;28;20758;-77
2022/01/14 13:07:43;;;;;;;79.63;18.87;;;3.50;99.90;;;;;;5063959;28;20315;-77
2022/01/14 13:10:10;;;;;;;74.53;20.20;;;3.50;99.90;;;;;;5026300;28;20283;-77
2022/01/14 13:12:41;;;;;;;69.57;19.27;;;3.60;99.90;;;;;;5023624;28;20342;-80
2022/01/14 13:15:10;;;;;;;69.13;20.67;;;3.70;99.90;;;;;;5051334;28;20984;-79
2022/01/14 13:17:49;;;;;;;73.50;19.53;;;3.80;99.90;;;;;;5029849;28;20300;-80
2022/01/14 13:20:16;;;;;;;52.67;17.40;;;3.90;99.90;;;;;;5032972;28;20112;-80
2022/01/14 13:22:45;;;;;;;55.67;15.93;;;3.90;99.90;;;;;;5030846;28;20029;-80
2022/01/14 13:25:17;;;;;;;52.83;17.43;;;4.00;99.90;;;;;;5038468;28;20037;-80
2022/01/14 13:28:00;;;;;;;57.17;17.02;;;4.10;99.90;;;;;;5031506;28;20532;-79
2022/01/14 13:30:28;;;;;;;46.90;16.93;;;4.10;99.90;;;;;;5030537;28;20112;-80
2022/01/14 13:33:04;;;;;;;61.87;20.23;;;4.00;99.90;;;;;;5045123;28;20025;-83
2022/01/14 13:35:35;;;;;;;58.00;18.70;;;3.70;99.90;;;;;;5054250;28;20026;-82
2022/01/14 13:38:08;;;;;;;86.10;18.90;;;3.70;99.90;;;;;;5050362;28;20497;-82
2022/01/14 13:40:35;;;;;;;;;;;3.60;99.90;;;;;;5057998;28;20310;-80
2022/01/14 13:43:13;;;;;;;62.43;16.83;;;3.50;99.90;;;;;;5043755;28;19948;-81
2022/01/14 13:45:41;;;;;;;75.47;19.03;;;3.50;99.90;;;;;;5056214;28;20291;-79
2022/01/14 13:48:09;;;;;;;60.90;17.83;;;3.60;99.90;;;;;;5043797;28;20049;-80
2022/01/14 13:50:40;;;;;;;67.57;19.37;;;3.60;99.90;;;;;;5039655;28;20021;-79
2022/01/14 13:53:06;;;;;;;77.37;18.50;;;3.60;99.90;;;;;;5033633;28;20418;-80
2022/01/14 13:55:40;;;;;;;57.27;16.53;;;3.70;99.90;;;;;;5028599;28;20287;-79
2022/01/14 13:58:16;;;;;;;63.47;17.77;;;3.70;99.90;;;;;;5034463;28;20294;-80
2022/01/14 14:00:44;;;;;;;60.13;16.50;;;3.70;99.90;;;;;;5029209;28;20288;-80
2022/01/14 14:03:47;;;;;;;60.43;16.10;;;3.70;99.90;;;;;;5037001;28;20295;-80
2022/01/14 14:06:43;;;;;;;76.85;16.65;;;3.80;99.90;;;;;;5046681;28;20285;-80
2022/01/14 14:09:21;;;;;;;65.67;17.93;;;3.80;99.90;;;;;;5037939;28;20049;-81
2022/01/14 14:12:10;;;;;;;59.53;16.93;;;3.90;99.90;;;;;;5038237;28;20065;-81
2022/01/14 14:17:42;;;;;;;69.17;16.67;;;3.90;99.90;;;;;;5045920;28;21000;-80
2022/01/14 14:20:09;;;;;;;64.33;15.57;;;3.90;99.90;;;;;;5041096;28;20038;-80
2022/01/14 14:22:39;;;;;;;62.27;17.27;;;3.90;99.90;;;;;;5037332;28;20119;-79
2022/01/14 14:25:16;;;;;;;65.63;18.93;;;3.80;99.90;;;;;;5021146;28;20276;-80
2022/01/14 14:28:03;;;;;;;67.37;17.87;;;3.80;99.90;;;;;;5020906;28;20038;-80
2022/01/14 14:30:41;;;;;;;56.13;17.67;;;3.80;99.90;;;;;;5033260;28;20353;-79
2022/01/14 14:33:08;;;;;;;63.83;17.90;;;3.90;99.90;;;;;;5031254;28;20078;-79
2022/01/14 14:35:35;;;;;;;61.93;16.77;;;3.90;99.90;;;;;;5032654;28;20042;-79